Time;durP1;ratioP1;P1;durP2;ratioP2;P2;SDS_P1;SDS_P2;PMS_P1;PMS_P2;Temp;Humidity;BMP_temperature;BMP_pressure;BME280_temperature;BME280_humidity;BME280_pressure;Samples;Min_cycle;Max_cycle;Signal;HPM_P1;HPM_P2
2024/01/01 00:00:16;;;;;;;127.93;60.03;;;;;;;5.81;100.00;100648.16;5032921;28;20096;-71
2024/01/01 00:02:42;;;;;;;99.05;44.45;;;;;;;6.33;100.00;100728.97;5032669;28;20484;-70
2024/01/01 00:05:08;;;;;;;97.40;41.67;;;;;;;5.91;100.00;100661.53;5031713;28;20091;-71
2024/01/01 00:07:35;;;;;;;79.82;36.72;;;;;;;6.15;100.00;100721.06;5032913;28;20511;-70
2024/01/01 00:10:04;;;;;;;73.03;36.10;;;;;;;5.97;100.00;100713.16;5032539;28;20061;-71
2024/01/01 00:12:31;;;;;;;105.53;41.00;;;;;;;5.87;100.00;100695.44;5032932;28;20040;-73
2024/01/01 00:14:56;;;;;;;105.93;38.65;;;;;;;6.02;100.00;100716.00;5032729;28;20082;-75
2024/01/01 00:17:22;;;;;;;99.07;35.85;;;;;;;5.90;100.00;100700.75;5019682;28;20108;-72
2024/01/01 00:19:47;;;;;;;97.78;34.95;;;;;;;5.90;100.00;100718.69;5032771;28;20439;-69
2024/01/01 00:22:12;;;;;;;119.03;36.17;;;;;;;5.86;100.00;100715.06;5033058;28;20029;-71
2024/01/01 00:24:38;;;;;;;116.25;39.58;;;;;;;5.86;100.00;100704.81;5032257;28;20038;-70
2024/01/01 00:27:04;;;;;;;99.75;37.97;;;;;;;5.87;100.00;100698.91;5032859;28;20064;-73
2024/01/01 00:29:30;;;;;;;124.60;52.72;;;;;;;5.93;100.00;100698.38;5032148;28;20551;-73
2024/01/01 00:31:58;;;;;;;114.43;49.67;;;;;;;6.01;100.00;100691.16;5032178;28;20040;-68
2024/01/01 00:34:23;;;;;;;114.40;37.40;;;;;;;6.13;100.00;100691.88;5032026;28;20124;-73
2024/01/01 00:36:49;;;;;;;131.38;40.20;;;;;;;5.75;100.00;100618.75;5032344;28;20625;-71
2024/01/01 00:39:14;;;;;;;106.88;36.63;;;;;;;6.19;100.00;100693.94;5031954;28;20036;-73
2024/01/01 00:41:40;;;;;;;136.20;40.53;;;;;;;6.23;100.00;100685.63;5032438;28;20033;-72
2024/01/01 00:44:06;;;;;;;170.00;40.17;;;;;;;5.85;100.00;100615.94;5032634;28;20794;-72
2024/01/01 00:46:33;;;;;;;127.55;39.00;;;;;;;6.19;100.00;100676.00;5032364;28;20037;-70
2024/01/01 00:48:58;;;;;;;128.60;37.97;;;;;;;6.35;100.00;100696.56;5032301;28;20032;-70
2024/01/01 00:51:26;;;;;;;153.77;41.17;;;;;;;6.24;100.00;100703.66;5032132;28;20400;-73
2024/01/01 00:53:52;;;;;;;129.30;44.65;;;;;;;6.20;100.00;100691.44;5032297;28;20030;-71
2024/01/01 00:56:17;;;;;;;136.30;40.42;;;;;;;6.16;100.00;100692.06;5031403;28;20474;-73
2024/01/01 00:58:43;;;;;;;84.72;32.22;;;;;;;6.03;100.00;100697.28;5031924;28;20523;-71
2024/01/01 01:01:08;;;;;;;100.00;34.28;;;;;;;5.74;100.00;100681.03;5031448;28;20044;-71
2024/01/01 01:03:35;;;;;;;81.65;33.95;;;;;;;5.54;100.00;100684.94;5031785;28;20038;-70
2024/01/01 01:06:01;;;;;;;101.90;34.30;;;;;;;5.39;100.00;100674.66;5030926;28;20087;-71
2024/01/01 01:08:27;;;;;;;118.10;37.65;;;;;;;4.98;100.00;100599.66;5031364;28;20045;-71
2024/01/01 01:10:52;;;;;;;122.97;38.72;;;;;;;5.38;100.00;100678.00;5018995;28;20029;-74
2024/01/01 01:13:18;;;;;;;181.70;41.78;;;;;;;5.39;100.00;100670.41;5030994;28;20102;-73
2024/01/01 01:15:43;;;;;;;143.13;40.42;;;;;;;5.49;100.00;100667.63;5031672;28;20072;-70
2024/01/01 01:18:09;;;;;;;159.07;43.80;;;;;;;5.52;100.00;100661.81;5031293;28;20042;-73
2024/01/01 01:20:34;;;;;;;192.32;45.40;;;;;;;5.65;100.00;100659.19;5031427;28;20057;-70
2024/01/01 01:23:00;;;;;;;179.25;47.80;;;;;;;5.75;100.00;100654.63;5031621;28;20095;-73
2024/01/01 01:25:26;;;;;;;174.68;47.30;;;;;;;5.88;100.00;100651.09;5031146;28;20032;-73
2024/01/01 01:27:51;;;;;;;176.07;47.78;;;;;;;5.96;100.00;100663.56;5031396;28;20030;-72
2024/01/01 01:30:17;;;;;;;209.93;48.80;;;;;;;6.01;100.00;100662.97;5004726;28;20037;-71
2024/01/01 01:32:42;;;;;;;183.02;46.67;;;;;;;5.94;100.00;100647.22;5024112;28;20025;-71
2024/01/01 01:35:08;;;;;;;216.80;45.63;;;;;;;6.03;100.00;100646.91;5019877;28;20069;-73
2024/01/01 01:37:34;;;;;;;165.43;43.25;;;;;;;5.98;100.00;100649.19;5025635;28;20041;-78
2024/01/01 01:39:59;;;;;;;169.48;44.67;;;;;;;5.98;100.00;100655.97;5030912;28;20037;-72
2024/01/01 01:42:25;;;;;;;168.32;44.85;;;;;;;6.05;100.00;100649.56;5029893;28;20124;-72
2024/01/01 01:44:51;;;;;;;159.98;44.45;;;;;;;5.81;100.00;100612.31;5031176;28;20057;-75
2024/01/01 01:47:16;;;;;;;106.18;43.28;;;;;;;6.04;100.00;100648.66;5031320;28;20025;-71
2024/01/01 01:49:42;;;;;;;85.78;41.50;;;;;;;5.94;100.00;100638.66;5031233;28;20387;-71
2024/01/01 01:52:10;;;;;;;77.10;42.47;;;;;;;5.94;100.00;100642.09;5030602;28;20111;-71
2024/01/01 01:54:36;;;;;;;80.40;40.33;;;;;;;6.02;100.00;100651.94;5028510;28;20521;-71
2024/01/01 01:57:03;;;;;;;76.82;36.63;;;;;;;5.59;100.00;100602.47;5030339;28;20116;-71
2024/01/01 01:59:29;;;;;;;68.10;33.38;;;;;;;5.29;100.00;100575.94;5031102;28;20026;-69
2024/01/01 02:01:56;;;;;;;62.75;33.80;;;;;;;5.61;100.00;100644.44;5023342;28;20033;-70
2024/01/01 02:04:23;;;;;;;64.32;34.20;;;;;;;5.30;100.00;100606.75;5021958;28;20048;-70
2024/01/01 02:06:49;;;;;;;64.53;33.70;;;;;;;5.54;100.00;100642.28;5018758;28;20030;-71
2024/01/01 02:09:14;;;;;;;62.83;36.92;;;;;;;5.38;100.00;100611.44;5020789;28;20033;-71
2024/01/01 02:11:40;;;;;;;71.05;37.50;;;;;;;5.63;100.00;100639.41;5018245;28;20523;-70
2024/01/01 02:14:09;;;;;;;73.97;38.85;;;;;;;5.66;100.00;100648.16;5019826;28;20022;-71
2024/01/01 02:16:35;;;;;;;69.78;39.97;;;;;;;5.39;100.00;100590.19;5018476;28;20037;-72
2024/01/01 02:19:01;;;;;;;65.03;37.42;;;;;;;5.71;100.00;100637.28;5015092;28;20485;-71
2024/01/01 02:21:27;;;;;;;62.85;38.65;;;;;;;5.63;100.00;100627.50;5016123;28;20049;-75
2024/01/01 02:23:53;;;;;;;68.65;40.65;;;;;;;5.76;100.00;100641.03;5010611;28;20041;-72
2024/01/01 02:26:19;;;;;;;63.95;38.10;;;;;;;5.69;100.00;100636.31;5017415;28;20029;-73
2024/01/01 02:28:44;;;;;;;59.95;36.33;;;;;;;5.55;100.00;100615.91;5027980;28;20060;-70
2024/01/01 02:31:09;;;;;;;59.33;35.60;;;;;;;5.73;100.00;100636.59;5030073;28;20018;-70
2024/01/01 02:33:35;;;;;;;63.92;34.72;;;;;;;5.33;100.00;100577.88;5026282;28;20022;-70
2024/01/01 02:36:00;;;;;;;59.35;33.03;;;;;;;5.25;100.00;100568.88;5027534;28;20419;-69
2024/01/01 02:38:26;;;;;;;74.97;30.25;;;;;;;5.38;100.00;100617.44;5022948;28;20088;-70
2024/01/01 02:41:11;;;;;;;71.85;28.90;;;;;;;5.39;100.00;100628.59;5014209;28;20140;-70
2024/01/01 02:43:37;;;;;;;47.63;29.90;;;;;;;5.45;100.00;100636.63;5007890;28;20125;-71
2024/01/01 02:46:03;;;;;;;49.28;30.85;;;;;;;5.42;100.00;100634.78;4991178;28;20037;-69
2024/01/01 02:48:28;;;;;;;49.47;31.17;;;;;;;5.04;100.00;100566.78;5007950;28;20030;-68
2024/01/01 02:50:54;;;;;;;46.10;28.30;;;;;;;5.30;100.00;100614.41;5007739;28;20141;-71
2024/01/01 02:53:19;;;;;;;45.72;27.90;;;;;;;5.07;100.00;100632.59;5007643;28;20037;-70
2024/01/01 02:55:45;;;;;;;50.72;32.55;;;;;;;4.78;100.00;100637.69;5007907;28;20053;-73
2024/01/01 02:58:10;;;;;;;68.97;36.00;;;;;;;4.49;100.00;100610.28;5008155;28;20217;-71
2024/01/01 03:00:36;;;;;;;75.75;34.38;;;;;;;4.51;100.00;100617.25;4993393;28;20042;-71
2024/01/01 03:03:03;;;;;;;81.30;36.80;;;;;;;4.16;100.00;100563.88;5014379;28;20045;-70
2024/01/01 03:05:28;;;;;;;89.50;37.20;;;;;;;4.35;100.00;100630.72;5014457;28;20034;-69
2024/01/01 03:07:54;;;;;;;81.90;36.60;;;;;;;3.91;100.00;100556.31;5014715;28;20475;-71
2024/01/01 03:10:19;;;;;;;82.32;36.05;;;;;;;4.28;100.00;100625.13;5014039;28;20042;-69
2024/01/01 03:12:45;;;;;;;98.95;35.60;;;;;;;3.40;100.00;100531.78;5030702;28;20045;-73
2024/01/01 03:15:10;;;;;;;103.85;35.03;;;;;;;3.87;100.00;100621.63;5035838;28;20393;-71
2024/01/01 03:17:36;;;;;;;85.13;33.97;;;;;;;3.66;100.00;100606.63;5036531;28;20037;-74
2024/01/01 03:20:04;;;;;;;82.15;35.30;;;;;;;3.60;100.00;100623.22;5036420;28;20048;-71
2024/01/01 03:22:30;;;;;;;64.65;32.03;;;;;;;2.80;100.00;100555.75;5036159;28;20484;-68
2024/01/01 03:24:55;;;;;;;81.22;35.60;;;;;;;3.11;100.00;100630.97;5035903;28;20060;-73
2024/01/01 03:27:21;;;;;;;88.35;35.28;;;;;;;2.75;100.00;100554.56;5036827;28;20025;-71
2024/01/01 03:29:46;;;;;;;89.70;36.47;;;;;;;3.01;100.00;100632.00;5035035;28;20064;-71
2024/01/01 03:32:12;;;;;;;68.07;36.40;;;;;;;2.47;100.00;100531.34;5036723;28;20018;-71
2024/01/01 03:34:38;;;;;;;77.20;37.05;;;;;;;2.63;100.00;100553.69;5036177;28;20449;-76
2024/01/01 03:37:04;;;;;;;68.72;35.42;;;;;;;3.00;100.00;100617.47;5037022;28;20060;-72
2024/01/01 03:39:30;;;;;;;72.53;37.10;;;;;;;3.10;100.00;100619.84;5035915;28;20025;-71
2024/01/01 03:41:55;;;;;;;76.40;38.10;;;;;;;3.12;100.00;100599.59;5036334;28;20035;-71
2024/01/01 03:44:21;;;;;;;76.45;38.92;;;;;;;3.25;100.00;100609.81;5036069;28;20389;-69
2024/01/01 03:46:46;;;;;;;99.63;37.42;;;;;;;3.30;100.00;100618.72;5035952;28;20036;-71
2024/01/01 03:49:12;;;;;;;87.10;37.55;;;;;;;3.25;100.00;100620.03;5036226;28;20060;-72
2024/01/01 03:51:37;;;;;;;116.20;37.47;;;;;;;3.15;100.00;100622.72;5036283;28;20462;-70
2024/01/01 03:54:02;;;;;;;88.47;36.75;;;;;;;3.11;100.00;100613.13;5035281;28;20038;-69
2024/01/01 03:56:28;;;;;;;129.40;38.05;;;;;;;2.85;100.00;100607.06;5036368;28;20030;-73
2024/01/01 03:58:54;;;;;;;98.97;35.90;;;;;;;2.73;100.00;100590.13;5036618;28;20392;-73
2024/01/01 04:01:21;;;;;;;90.78;36.08;;;;;;;2.97;100.00;100627.47;5036399;28;20025;-70
2024/01/01 04:03:47;;;;;;;90.82;36.85;;;;;;;3.02;100.00;100628.66;5036156;28;20029;-69
2024/01/01 04:06:12;;;;;;;67.15;38.33;;;;;;;3.03;100.00;100617.69;5033281;28;20413;-70
2024/01/01 04:08:38;;;;;;;64.90;39.55;;;;;;;3.00;100.00;100613.22;5035880;28;20036;-70
2024/01/01 04:11:03;;;;;;;62.53;39.08;;;;;;;2.63;100.00;100535.84;5026221;28;20030;-70
2024/01/01 04:13:29;;;;;;;61.30;38.25;;;;;;;3.16;100.00;100620.28;5020839;28;20415;-70
2024/01/01 04:15:54;;;;;;;64.35;39.28;;;;;;;3.14;100.00;100642.28;5032725;28;20029;-70
2024/01/01 04:18:20;;;;;;;65.72;42.97;;;;;;;3.22;100.00;100605.41;5032941;28;20029;-69
2024/01/01 04:20:45;;;;;;;59.67;39.45;;;;;;;3.23;100.00;100603.75;5031497;28;20025;-70
2024/01/01 04:23:11;;;;;;;63.53;40.42;;;;;;;3.43;100.00;100611.84;5032448;28;20029;-68
2024/01/01 04:25:36;;;;;;;68.47;37.20;;;;;;;2.86;100.00;100523.03;5032761;28;20029;-69
2024/01/01 04:28:02;;;;;;;72.90;39.05;;;;;;;3.16;100.00;100612.63;5030954;28;20033;-70
2024/01/01 04:30:27;;;;;;;86.50;36.72;;;;;;;3.20;100.00;100606.97;5032610;28;20029;-70
2024/01/01 04:32:53;;;;;;;108.05;36.45;;;;;;;3.14;100.00;100606.56;5033039;28;20036;-69
2024/01/01 04:35:18;;;;;;;74.88;35.47;;;;;;;3.20;100.00;100613.72;5032344;28;20061;-70
2024/01/01 04:37:44;;;;;;;64.38;33.85;;;;;;;3.28;100.00;100604.94;5032518;28;20025;-71
2024/01/01 04:40:09;;;;;;;78.45;36.22;;;;;;;3.35;100.00;100622.44;5032777;28;20025;-69
2024/01/01 04:42:35;;;;;;;65.18;39.13;;;;;;;3.36;100.00;100615.66;5032727;28;20032;-72
2024/01/01 04:45:00;;;;;;;60.80;37.53;;;;;;;3.43;100.00;100611.84;5032362;28;20037;-70
2024/01/01 04:47:26;;;;;;;58.08;36.50;;;;;;;3.26;100.00;100586.09;5032712;28;20036;-70
2024/01/01 04:49:51;;;;;;;67.40;42.22;;;;;;;3.47;100.00;100612.19;5032220;28;20104;-70
2024/01/01 04:52:17;;;;;;;62.65;38.15;;;;;;;3.51;100.00;100603.94;5032063;28;20033;-70
2024/01/01 04:54:42;;;;;;;69.00;39.38;;;;;;;3.56;100.00;100606.81;5031786;28;20459;-70
2024/01/01 04:57:08;;;;;;;108.93;39.60;;;;;;;3.36;100.00;100614.00;5032478;28;20120;-69
2024/01/01 04:59:33;;;;;;;89.95;40.53;;;;;;;3.26;100.00;100619.25;5031953;28;20037;-70
2024/01/01 05:01:59;;;;;;;130.43;40.97;;;;;;;2.83;100.00;100547.44;5032083;28;20455;-70
2024/01/01 05:04:24;;;;;;;120.55;37.83;;;;;;;3.16;100.00;100625.38;5031991;28;20033;-69
2024/01/01 05:06:50;;;;;;;96.60;41.75;;;;;;;3.09;100.00;100600.25;5031905;28;20464;-70
2024/01/01 05:09:15;;;;;;;95.10;39.97;;;;;;;2.78;100.00;100536.03;5031440;28;20029;-70
2024/01/01 05:11:41;;;;;;;93.20;37.90;;;;;;;3.03;100.00;100592.19;5030793;28;20025;-69
2024/01/01 05:14:07;;;;;;;74.15;40.58;;;;;;;2.71;100.00;100624.81;5031949;28;20415;-70
2024/01/01 05:16:34;;;;;;;69.05;36.78;;;;;;;2.27;100.00;100614.91;5031984;28;20111;-69
2024/01/01 05:19:00;;;;;;;62.17;34.03;;;;;;;2.01;100.00;100618.97;5031545;28;20471;-70
2024/01/01 05:21:26;;;;;;;94.28;37.42;;;;;;;1.38;100.00;100525.25;5031481;28;20053;-70
2024/01/01 05:23:51;;;;;;;96.38;38.47;;;;;;;1.73;100.00;100599.13;5031259;28;20045;-70
2024/01/01 05:26:17;;;;;;;86.43;38.58;;;;;;;2.00;100.00;100616.31;5031789;28;20037;-70
2024/01/01 05:28:42;;;;;;;175.95;72.55;;;;;;;2.17;100.00;100627.72;5031279;28;20037;-70
2024/01/01 05:31:08;;;;;;;105.65;50.20;;;;;;;2.32;100.00;100623.75;5031542;28;20479;-75
2024/01/01 05:33:35;;;;;;;83.68;41.63;;;;;;;2.39;100.00;100614.88;5031699;28;20033;-69
2024/01/01 05:36:00;;;;;;;73.35;42.92;;;;;;;2.17;100.00;100559.84;5031333;28;20084;-69
2024/01/01 05:38:26;;;;;;;85.38;39.13;;;;;;;2.58;100.00;100606.91;5031601;28;20060;-70
2024/01/01 05:40:52;;;;;;;72.07;39.20;;;;;;;2.64;100.00;100622.66;5031612;28;20468;-70
2024/01/01 05:43:18;;;;;;;98.90;37.78;;;;;;;2.67;100.00;100620.28;5031185;28;20468;-70
2024/01/01 05:45:44;;;;;;;85.07;33.72;;;;;;;2.66;100.00;100620.19;5030193;28;20095;-69
2024/01/01 05:48:10;;;;;;;69.47;34.67;;;;;;;2.59;100.00;100609.56;5031239;28;20025;-70
2024/01/01 05:50:35;;;;;;;72.95;34.03;;;;;;;2.65;100.00;100619.28;5031054;28;20404;-69
2024/01/01 05:53:01;;;;;;;65.93;31.45;;;;;;;2.55;100.00;100611.78;5030794;28;20029;-70
2024/01/01 05:55:26;;;;;;;89.07;31.27;;;;;;;2.64;100.00;100617.53;5031136;28;20132;-69
2024/01/01 05:57:51;;;;;;;59.95;29.25;;;;;;;2.57;100.00;100633.16;5031150;28;20076;-69
2024/01/01 06:00:19;;;;;;;49.80;32.40;;;;;;;2.39;100.00;100605.59;5030976;28;20032;-70
2024/01/01 06:02:44;;;;;;;60.55;36.67;;;;;;;2.23;100.00;100577.22;5031079;28;20060;-70
2024/01/01 06:05:10;;;;;;;52.83;31.27;;;;;;;2.39;100.00;100645.47;5030809;28;20072;-74
2024/01/01 06:07:35;;;;;;;48.13;30.15;;;;;;;2.30;100.00;100632.94;5031068;28;20518;-70
2024/01/01 06:10:01;;;;;;;51.10;29.52;;;;;;;2.06;100.00;100624.41;5030961;28;20040;-69
2024/01/01 06:12:27;;;;;;;54.42;29.05;;;;;;;1.21;100.00;100498.53;5030469;28;20029;-70
2024/01/01 06:14:52;;;;;;;74.07;31.73;;;;;;;2.02;100.00;100628.38;5031016;28;20100;-74
2024/01/01 06:17:18;;;;;;;79.22;32.33;;;;;;;2.05;100.00;100625.19;5030501;28;20037;-71
2024/01/01 06:19:43;;;;;;;83.43;32.95;;;;;;;2.06;100.00;100621.88;5030609;28;20052;-70
2024/01/01 06:22:08;;;;;;;79.65;30.05;;;;;;;1.88;100.00;100598.47;5030633;28;20029;-72
2024/01/01 06:24:34;;;;;;;75.53;29.55;;;;;;;2.03;100.00;100625.06;5030875;28;20029;-69
2024/01/01 06:26:59;;;;;;;61.22;29.05;;;;;;;2.05;100.00;100620.09;5030364;28;20518;-70
2024/01/01 06:29:27;;;;;;;96.00;28.55;;;;;;;2.02;100.00;100619.84;5030528;28;20025;-71
2024/01/01 06:31:53;;;;;;;61.33;28.30;;;;;;;1.32;100.00;100481.53;5030385;28;20029;-70
2024/01/01 06:34:19;;;;;;;114.78;29.65;;;;;;;2.22;100.00;100631.50;5030430;28;20510;-70
2024/01/01 06:36:48;;;;;;;65.45;28.70;;;;;;;2.29;100.00;100637.94;5028356;28;20556;-69
2024/01/01 06:39:13;;;;;;;94.05;29.20;;;;;;;2.05;100.00;100627.72;5012215;28;20042;-70
2024/01/01 06:41:39;;;;;;;65.72;28.55;;;;;;;2.01;100.00;100613.00;5014668;28;20037;-74
2024/01/01 06:44:04;;;;;;;67.70;30.02;;;;;;;2.15;100.00;100631.84;5010980;28;20033;-75
2024/01/01 06:46:30;;;;;;;68.22;29.77;;;;;;;2.27;100.00;100630.19;5016148;28;20040;-74
2024/01/01 06:48:55;;;;;;;71.22;28.75;;;;;;;2.28;100.00;100620.88;5029481;28;20021;-72
2024/01/01 06:51:21;;;;;;;87.50;30.75;;;;;;;2.20;100.00;100597.41;5029971;28;20034;-71
2024/01/01 06:53:46;;;;;;;80.22;31.48;;;;;;;2.06;100.00;100584.53;5029866;28;20134;-73
2024/01/01 06:56:12;;;;;;;51.60;29.08;;;;;;;2.25;100.00;100619.84;5028353;28;20036;-70
2024/01/01 06:58:37;;;;;;;55.03;28.08;;;;;;;1.94;100.00;100553.09;5030078;28;20575;-70
2024/01/01 07:01:03;;;;;;;48.35;26.80;;;;;;;2.24;100.00;100609.56;5029608;28;20408;-70
2024/01/01 07:03:29;;;;;;;60.13;27.13;;;;;;;1.98;100.00;100549.09;5029947;28;20143;-70
2024/01/01 07:05:55;;;;;;;49.03;26.75;;;;;;;2.14;100.00;100563.84;5029524;28;20052;-72
2024/01/01 07:08:20;;;;;;;50.72;27.42;;;;;;;2.37;100.00;100609.69;5034643;28;20043;-70
2024/01/01 07:10:48;;;;;;;43.22;27.98;;;;;;;2.03;100.00;100558.88;5022984;28;20034;-70
2024/01/01 07:13:13;;;;;;;43.72;27.58;;;;;;;2.19;100.00;100603.25;5029949;28;20474;-69
2024/01/01 07:15:39;;;;;;;50.45;28.67;;;;;;;2.20;100.00;100599.94;5029717;28;20030;-72
2024/01/01 07:18:05;;;;;;;48.35;29.83;;;;;;;1.71;100.00;100514.13;5022901;28;20061;-72
2024/01/01 07:20:30;;;;;;;49.47;28.35;;;;;;;2.26;100.00;100602.94;5018864;28;20475;-68
2024/01/01 07:22:56;;;;;;;53.08;31.05;;;;;;;2.35;100.00;100601.03;5029806;28;20064;-70
2024/01/01 07:25:22;;;;;;;59.92;28.42;;;;;;;2.42;100.00;100600.72;5029453;28;20033;-70
2024/01/01 07:27:47;;;;;;;51.75;27.50;;;;;;;2.34;100.00;100591.63;5017080;28;20479;-70
2024/01/01 07:30:14;;;;;;;53.78;26.88;;;;;;;2.49;100.00;100613.88;5029854;28;20068;-72
2024/01/01 07:32:40;;;;;;;60.63;26.73;;;;;;;2.51;100.00;100599.59;5028553;28;20034;-71
2024/01/01 07:35:08;;;;;;;47.22;27.33;;;;;;;2.46;100.00;100606.91;5029457;28;20067;-70
2024/01/01 07:37:36;;;;;;;48.72;28.00;;;;;;;2.51;100.00;100599.59;5029489;28;20029;-73
2024/01/01 07:40:02;;;;;;;61.55;33.88;;;;;;;2.21;100.00;100532.94;5029519;28;20025;-69
2024/01/01 07:42:28;;;;;;;66.97;34.88;;;;;;;2.80;100.00;100608.41;5028052;28;20025;-70
2024/01/01 07:44:53;;;;;;;61.47;31.85;;;;;;;2.85;100.00;100596.88;5029031;28;20106;-70
2024/01/01 07:47:19;;;;;;;55.65;32.30;;;;;;;2.88;100.00;100597.09;5031169;28;20029;-70
2024/01/01 07:49:45;;;;;;;62.33;32.78;;;;;;;2.98;100.00;100596.97;5033581;28;20032;-69
2024/01/01 07:52:12;;;;;;;51.22;30.63;;;;;;;2.83;100.00;100550.88;5033468;28;20025;-69
2024/01/01 07:54:39;;;;;;;46.23;28.27;;;;;;;2.89;100.00;100542.75;5033269;28;20038;-70
2024/01/01 07:57:06;;;;;;;45.08;28.45;;;;;;;3.30;100.00;100598.28;5033505;28;20058;-69
2024/01/01 07:59:32;;;;;;;47.42;29.92;;;;;;;2.90;100.00;100519.03;5033047;28;20025;-71
2024/01/01 08:01:57;;;;;;;48.53;30.55;;;;;;;3.47;100.00;100601.09;5033501;28;20401;-68
2024/01/01 08:04:23;;;;;;;46.55;30.75;;;;;;;3.56;100.00;100612.81;5032875;28;20026;-68
2024/01/01 08:06:48;;;;;;;53.03;34.78;;;;;;;3.55;100.00;100605.03;5033554;28;20026;-71
2024/01/01 08:09:14;;;;;;;54.28;36.15;;;;;;;3.64;100.00;100602.22;5033469;28;20026;-71
2024/01/01 08:11:39;;;;;;;52.05;34.92;;;;;;;3.34;100.00;100528.81;5032810;28;20119;-72
2024/01/01 08:14:05;;;;;;;52.80;35.33;;;;;;;3.86;100.00;100584.09;5032767;28;20026;-74
2024/01/01 08:16:33;;;;;;;51.20;34.35;;;;;;;4.08;100.00;100603.41;5032558;28;20491;-69
2024/01/01 08:18:59;;;;;;;54.08;35.65;;;;;;;4.11;100.00;100613.78;5032725;28;20089;-71
2024/01/01 08:21:24;;;;;;;54.03;35.80;;;;;;;4.10;100.00;100615.47;5032867;28;20094;-70
2024/01/01 08:23:50;;;;;;;51.25;35.00;;;;;;;3.90;100.00;100563.09;5032803;28;20032;-71
2024/01/01 08:26:15;;;;;;;56.50;37.20;;;;;;;4.27;100.00;100615.69;5033049;28;20033;-69
2024/01/01 08:28:41;;;;;;;56.13;36.20;;;;;;;3.94;100.00;100536.97;5031748;28;20407;-69
2024/01/01 08:31:06;;;;;;;58.10;38.17;;;;;;;4.49;100.00;100597.50;5032487;28;20088;-74
2024/01/01 08:33:32;;;;;;;64.32;41.33;;;;;;;4.52;100.00;100584.91;5032518;28;20025;-70
2024/01/01 08:35:57;;;;;;;61.47;40.72;;;;;;;4.69;100.00;100591.94;5032525;28;20057;-73
2024/01/01 08:38:24;;;;;;;64.03;40.58;;;;;;;4.78;100.00;100588.22;5032488;28;20022;-70
2024/01/01 08:40:51;;;;;;;67.07;43.35;;;;;;;4.82;100.00;100562.91;5027295;28;20574;-70
2024/01/01 08:43:16;;;;;;;70.32;43.60;;;;;;;5.01;100.00;100574.28;5032355;28;20029;-70
2024/01/01 08:45:42;;;;;;;75.82;49.10;;;;;;;5.08;100.00;100563.59;5032390;28;20458;-77
2024/01/01 08:48:08;;;;;;;75.82;47.33;;;;;;;5.19;100.00;100559.13;5032631;28;20040;-72
2024/01/01 08:50:34;;;;;;;78.75;45.53;;;;;;;5.27;100.00;100550.25;5030741;28;20496;-70
2024/01/01 08:52:59;;;;;;;73.82;46.47;;;;;;;5.31;100.00;100541.09;5032772;28;20034;-70
2024/01/01 08:55:25;;;;;;;75.32;46.97;;;;;;;5.52;100.00;100538.91;5032598;28;20100;-71
2024/01/01 08:57:50;;;;;;;76.65;46.30;;;;;;;5.57;100.00;100539.16;5032212;28;20043;-69
2024/01/01 09:00:17;;;;;;;72.72;46.30;;;;;;;5.64;100.00;100538.72;5032122;28;20112;-70
2024/01/01 09:02:43;;;;;;;73.25;47.97;;;;;;;5.65;100.00;100515.75;5032599;28;20060;-69
2024/01/01 09:05:09;;;;;;;103.50;60.58;;;;;;;5.88;100.00;100518.75;5032564;28;20453;-74
2024/01/01 09:07:35;;;;;;;74.35;48.83;;;;;;;6.04;100.00;100523.06;5032513;28;20488;-70
2024/01/01 09:10:02;;;;;;;80.25;49.65;;;;;;;6.14;100.00;100527.03;5032415;28;20035;-70
2024/01/01 09:12:28;;;;;;;75.32;47.58;;;;;;;6.13;100.00;100504.75;5032344;28;20029;-71
2024/01/01 09:14:56;;;;;;;74.45;48.38;;;;;;;6.25;100.00;100509.69;5032260;28;20411;-73
2024/01/01 09:17:22;;;;;;;70.65;46.17;;;;;;;6.39;100.00;100508.78;5032369;28;20087;-70
2024/01/01 09:19:48;;;;;;;72.32;46.45;;;;;;;6.50;100.00;100491.38;5032206;28;20034;-70
2024/01/01 09:22:14;;;;;;;78.53;47.13;;;;;;;6.40;100.00;100450.66;5032114;28;20029;-70
2024/01/01 09:24:42;;;;;;;72.82;46.70;;;;;;;6.32;100.00;100422.94;5031846;28;20037;-69
2024/01/01 09:27:07;;;;;;;77.05;48.20;;;;;;;6.71;100.00;100488.22;5031979;28;20029;-73
2024/01/01 09:29:33;;;;;;;70.88;46.05;;;;;;;6.83;100.00;100491.44;5031992;28;20549;-71
2024/01/01 09:31:58;;;;;;;71.28;46.58;;;;;;;6.56;100.00;100412.19;5031980;28;20034;-69
2024/01/01 09:34:24;;;;;;;78.07;47.70;;;;;;;6.38;100.00;100360.84;5032126;28;20091;-71
2024/01/01 09:36:49;;;;;;;75.88;48.50;;;;;;;7.20;100.00;100483.06;5031747;28;20046;-69
2024/01/01 09:39:16;;;;;;;71.75;46.35;;;;;;;7.34;100.00;100480.28;5031834;28;20112;-70
2024/01/01 09:41:42;;;;;;;73.05;47.35;;;;;;;7.50;100.00;100469.97;5031676;28;20030;-70
2024/01/01 09:44:11;;;;;;;70.88;46.00;;;;;;;7.48;100.00;100460.41;5031735;28;20030;-73
2024/01/01 09:46:38;;;;;;;74.65;47.92;;;;;;;7.68;100.00;100469.13;5030583;28;20029;-70
2024/01/01 09:49:04;;;;;;;69.63;44.88;;;;;;;7.83;100.00;100467.28;5031068;28;20091;-70
2024/01/01 09:51:30;;;;;;;70.18;47.13;;;;;;;7.96;100.00;100462.72;5031185;28;20017;-70
2024/01/01 09:53:56;;;;;;;71.25;46.83;;;;;;;7.82;100.00;100419.25;5028095;28;20021;-69
2024/01/01 09:56:21;;;;;;;68.75;45.53;;;;;;;7.98;100.00;100430.25;5029559;28;20072;-71
2024/01/01 09:58:47;;;;;;;71.97;46.20;;;;;;;8.23;100.00;100448.56;5031228;28;20030;-69
2024/01/01 10:01:16;;;;;;;68.30;44.92;;;;;;;8.35;100.00;100450.84;5030768;28;20029;-71
2024/01/01 10:03:42;;;;;;;69.57;45.28;;;;;;;8.38;100.00;100440.66;5030743;28;20100;-71
2024/01/01 10:06:12;;;;;;;77.60;49.03;;;;;;;8.18;100.00;100384.91;5030655;28;20462;-69
2024/01/01 10:08:38;;;;;;;83.40;57.22;;;;;;;8.41;100.00;100417.66;5028155;28;20460;-69
2024/01/01 10:11:20;;;;;;;72.32;48.95;;;;;;;8.73;100.00;100440.53;5023359;28;20049;-70
2024/01/01 10:13:46;;;;;;;79.57;49.05;;;;;;;8.66;100.00;100411.06;5029230;28;20510;-69
2024/01/01 10:16:25;;;;;;;89.53;56.28;;;;;;;8.73;100.00;100409.63;5030203;28;20031;-69
2024/01/01 10:18:56;;;;;;;83.35;50.60;;;;;;;8.84;100.00;100408.41;5030680;28;20404;-70
2024/01/01 10:21:29;;;;;;;94.65;58.50;;;;;;;8.76;100.00;100399.50;5030737;28;20031;-69
2024/01/01 10:23:56;;;;;;;74.40;44.45;;;;;;;8.77;100.00;100390.94;5030431;28;20036;-69
2024/01/01 10:26:22;;;;;;;75.10;49.20;;;;;;;8.78;100.00;100395.25;5031044;28;20025;-71
2024/01/01 10:28:47;;;;;;;70.47;47.35;;;;;;;8.96;100.00;100408.06;5030540;28;20077;-70
2024/01/01 10:31:14;;;;;;;72.63;49.67;;;;;;;8.97;100.00;100378.03;5030745;28;20079;-71
2024/01/01 10:33:47;;;;;;;66.45;47.15;;;;;;;9.18;100.00;100388.34;5016905;28;20060;-73
2024/01/01 10:36:16;;;;;;;68.07;45.38;;;;;;;9.31;100.00;100384.56;5030461;28;20065;-71
2024/01/01 10:38:43;;;;;;;74.00;48.13;;;;;;;9.42;100.00;100369.53;4995544;28;20132;-69
2024/01/01 10:41:11;;;;;;;66.50;45.40;;;;;;;9.49;100.00;100395.59;5030363;28;20048;-70
2024/01/01 10:43:37;;;;;;;71.68;48.13;;;;;;;9.57;100.00;100375.31;5030052;28;20036;-70
2024/01/01 10:46:04;;;;;;;73.35;46.72;;;;;;;9.58;100.00;100369.31;5030590;28;20465;-71
2024/01/01 10:48:35;;;;;;;61.67;43.15;;;;;;;9.64;100.00;100367.00;5030141;28;20021;-72
2024/01/01 10:51:11;;;;;;;65.45;45.78;;;;;;;9.77;100.00;100365.78;5029946;28;20025;-70
2024/01/01 10:53:51;;;;;;;62.85;43.58;;;;;;;9.47;100.00;100306.19;5029939;28;20083;-73
2024/01/01 10:56:39;;;;;;;62.28;42.83;;;;;;;9.83;100.00;100362.53;5029612;28;20037;-72
2024/01/01 10:59:19;;;;;;;68.07;45.17;;;;;;;9.92;100.00;100373.22;5029290;28;20064;-71
2024/01/01 11:01:47;;;;;;;57.50;41.33;;;;;;;9.90;100.00;100350.78;5024720;28;20468;-71